createdAt,value
2023-01-07T00:01:53.934Z,39.38
2023-01-07T00:04:21.182Z,55.55
2023-01-07T00:06:49.392Z,53.15
2023-01-07T00:09:16.826Z,50.45
2023-01-07T00:11:45.099Z,37.50
2023-01-07T00:14:14.257Z,28.10
2023-01-07T00:16:42.064Z,30.10
2023-01-07T00:19:14.819Z,29.48
2023-01-07T00:21:42.776Z,32.83
2023-01-07T00:24:11.314Z,33.63
2023-01-07T00:26:39.720Z,27.25
2023-01-07T00:29:08.442Z,30.58
2023-01-07T00:31:39.105Z,27.38
2023-01-07T00:34:08.499Z,27.88
2023-01-07T00:36:42.773Z,33.65
2023-01-07T00:39:14.906Z,22.98
2023-01-07T00:42:01.631Z,19.70
2023-01-07T00:44:29.813Z,29.25
2023-01-07T00:46:58.761Z,30.92
2023-01-07T00:49:26.863Z,26.38
2023-01-07T00:51:54.231Z,23.55
2023-01-07T00:54:23.081Z,24.92
2023-01-07T00:56:50.315Z,22.02
2023-01-07T00:59:17.590Z,22.35
2023-01-07T01:01:46.052Z,22.77
2023-01-07T01:04:13.505Z,19.63
2023-01-07T01:06:40.803Z,21.73
2023-01-07T01:09:08.298Z,27.70
2023-01-07T01:11:35.597Z,32.58
2023-01-07T01:14:02.939Z,25.90
2023-01-07T01:16:30.191Z,32.33
2023-01-07T01:18:57.414Z,25.25
2023-01-07T01:21:24.593Z,31.67
2023-01-07T01:23:51.935Z,26.67
2023-01-07T01:26:19.114Z,21.40
2023-01-07T01:28:46.605Z,26.85
2023-01-07T01:31:19.168Z,30.92
2023-01-07T01:33:54.536Z,30.80
2023-01-07T01:36:21.962Z,31.83
2023-01-07T01:38:51.148Z,34.10
2023-01-07T01:41:18.633Z,32.85
2023-01-07T01:43:48.529Z,25.15
2023-01-07T01:46:38.002Z,20.15
2023-01-07T01:49:19.825Z,31.40
2023-01-07T01:52:19.174Z,33.03
2023-01-07T01:54:54.418Z,23.92
2023-01-07T01:57:23.861Z,28.52
2023-01-07T01:59:56.590Z,24.02
2023-01-07T02:02:36.663Z,31.67
2023-01-07T02:05:05.566Z,23.10
2023-01-07T02:07:33.000Z,23.77
2023-01-07T02:10:20.853Z,32.10
2023-01-07T02:13:28.875Z,24.13
2023-01-07T02:16:49.924Z,27.95
2023-01-07T02:19:34.767Z,34.90
2023-01-07T02:22:45.665Z,26.45
2023-01-07T02:25:52.000Z,28.27
2023-01-07T02:28:37.209Z,27.55
2023-01-07T02:31:35.702Z,21.48
2023-01-07T02:34:21.221Z,24.40
2023-01-07T02:37:14.928Z,24.98
2023-01-07T02:40:09.972Z,22.13
2023-01-07T02:43:24.781Z,24.65
2023-01-07T02:46:10.437Z,17.05
2023-01-07T02:48:39.934Z,20.08
2023-01-07T02:51:07.126Z,22.88
2023-01-07T02:53:34.738Z,25.38
2023-01-07T02:56:24.152Z,32.05
2023-01-07T02:59:41.959Z,22.93
2023-01-07T03:02:40.121Z,23.70
2023-01-07T03:05:37.081Z,19.13
2023-01-07T03:08:28.055Z,23.60
2023-01-07T03:11:13.715Z,22.23
2023-01-07T03:14:02.887Z,18.90
2023-01-07T03:16:44.774Z,20.25
2023-01-07T03:19:21.863Z,26.45
2023-01-07T03:21:49.752Z,26.08
2023-01-07T03:24:18.386Z,21.42
2023-01-07T03:26:50.469Z,21.27
2023-01-07T03:29:19.493Z,19.73
2023-01-07T03:34:32.048Z,23.23
2023-01-07T03:37:17.638Z,23.80
2023-01-07T03:39:46.778Z,25.33
2023-01-07T03:42:37.964Z,25.65
2023-01-07T03:45:12.773Z,32.13
2023-01-07T03:47:48.815Z,37.17
2023-01-07T03:50:17.543Z,34.35
2023-01-07T03:52:50.551Z,32.33
2023-01-07T03:55:19.908Z,25.55
2023-01-07T03:57:48.950Z,33.20
2023-01-07T04:00:17.485Z,28.98
2023-01-07T04:02:52.395Z,36.88
2023-01-07T04:05:31.171Z,27.88
2023-01-07T04:07:58.956Z,32.90
2023-01-07T04:10:31.316Z,29.58
2023-01-07T04:12:58.577Z,38.55
2023-01-07T04:15:26.133Z,39.20
2023-01-07T04:17:53.335Z,37.92
2023-01-07T04:20:20.561Z,33.20
2023-01-07T04:22:47.922Z,35.38
2023-01-07T04:25:15.277Z,42.03
2023-01-07T04:27:42.499Z,39.80
2023-01-07T04:30:10.375Z,32.92
2023-01-07T04:32:38.460Z,32.10
2023-01-07T04:35:06.133Z,34.17
2023-01-07T04:37:34.160Z,35.63
2023-01-07T04:40:02.571Z,41.28
2023-01-07T04:42:34.340Z,28.40
2023-01-07T04:45:01.689Z,27.70
2023-01-07T04:47:28.912Z,27.10
2023-01-07T04:49:57.071Z,27.92
2023-01-07T04:52:24.413Z,29.05
2023-01-07T04:54:53.738Z,36.88
2023-01-07T04:57:20.910Z,34.28
2023-01-07T04:59:48.104Z,33.50
2023-01-07T05:02:16.027Z,31.10
2023-01-07T05:04:44.074Z,50.55
2023-01-07T05:07:12.013Z,31.05
2023-01-07T05:09:39.421Z,30.95
2023-01-07T05:12:07.985Z,32.42
2023-01-07T05:14:35.580Z,30.35
2023-01-07T05:17:03.118Z,27.65
2023-01-07T05:19:31.810Z,40.15
2023-01-07T05:22:00.646Z,41.80
2023-01-07T05:24:28.268Z,42.25
2023-01-07T05:26:55.932Z,47.25
2023-01-07T05:29:23.366Z,34.58
2023-01-07T05:31:50.698Z,38.17
2023-01-07T05:34:18.373Z,43.78
2023-01-07T05:36:46.375Z,33.90
2023-01-07T05:39:14.658Z,30.95
2023-01-07T05:41:42.615Z,25.25
2023-01-07T05:44:09.936Z,22.98
2023-01-07T05:46:37.213Z,20.15
2023-01-07T05:49:04.451Z,26.67
2023-01-07T05:51:31.710Z,34.70
2023-01-07T05:53:59.051Z,23.23
2023-01-07T05:56:26.251Z,28.23
2023-01-07T05:58:53.407Z,33.22
2023-01-07T06:01:20.694Z,33.65
2023-01-07T06:03:47.940Z,33.47
2023-01-07T06:06:15.208Z,33.00
2023-01-07T06:08:42.681Z,28.52
2023-01-07T06:11:10.126Z,29.50
2023-01-07T06:13:37.376Z,31.55
2023-01-07T06:16:08.904Z,36.40
2023-01-07T06:18:36.524Z,31.20
2023-01-07T06:21:03.995Z,26.25
2023-01-07T06:23:31.297Z,33.10
2023-01-07T06:25:58.570Z,33.47
2023-01-07T06:28:25.958Z,27.23
2023-01-07T06:30:53.273Z,37.65
2023-01-07T06:33:20.613Z,33.75
2023-01-07T06:35:47.894Z,30.85
2023-01-07T06:38:15.123Z,33.28
2023-01-07T06:40:44.069Z,29.08
2023-01-07T06:43:11.470Z,27.15
2023-01-07T06:45:41.343Z,32.40
2023-01-07T06:48:08.801Z,37.78
2023-01-07T06:50:36.072Z,29.60
2023-01-07T06:53:03.917Z,35.40
2023-01-07T06:55:31.078Z,33.25
2023-01-07T06:57:58.321Z,35.95
2023-01-07T07:00:25.606Z,45.70
2023-01-07T07:02:52.816Z,39.25
2023-01-07T07:05:20.319Z,40.45
2023-01-07T07:07:47.730Z,41.50
2023-01-07T07:10:15.055Z,41.47
2023-01-07T07:12:42.337Z,39.40
2023-01-07T07:15:10.226Z,39.22
2023-01-07T07:17:37.794Z,38.95
2023-01-07T07:20:05.946Z,49.05
2023-01-07T07:22:33.200Z,45.03
2023-01-07T07:25:00.483Z,48.33
2023-01-07T07:27:27.970Z,43.10
2023-01-07T07:29:55.270Z,44.83
2023-01-07T07:33:37.398Z,41.65
2023-01-07T07:36:05.094Z,46.33
2023-01-07T07:38:32.408Z,38.42
2023-01-07T07:41:00.997Z,47.10
2023-01-07T07:43:28.360Z,32.83
2023-01-07T07:45:57.479Z,41.75
2023-01-07T07:48:24.648Z,28.75
2023-01-07T07:50:52.113Z,31.63
2023-01-07T07:53:20.191Z,35.35
2023-01-07T07:55:47.617Z,39.10
2023-01-07T07:58:15.181Z,32.38
2023-01-07T08:00:42.350Z,45.75
2023-01-07T08:03:10.863Z,39.05
2023-01-07T08:05:44.935Z,41.10
2023-01-07T08:08:14.355Z,34.97
2023-01-07T08:10:42.119Z,51.30
2023-01-07T08:13:09.666Z,35.85
2023-01-07T08:15:37.193Z,45.05
2023-01-07T08:18:07.605Z,38.03
2023-01-07T08:20:36.740Z,51.10
2023-01-07T08:23:06.688Z,43.10
2023-01-07T08:25:34.891Z,43.85
2023-01-07T08:28:03.285Z,43.97
2023-01-07T08:30:30.647Z,46.25
2023-01-07T08:32:58.988Z,52.97
2023-01-07T08:35:26.383Z,47.90
2023-01-07T08:38:02.088Z,54.00
2023-01-07T08:40:29.452Z,43.65
2023-01-07T08:43:01.701Z,40.70
2023-01-07T08:45:29.868Z,36.03
2023-01-07T08:47:57.229Z,35.67
2023-01-07T08:50:27.767Z,37.20
2023-01-07T08:52:55.238Z,40.47
2023-01-07T08:55:22.989Z,38.92
2023-01-07T08:57:51.025Z,40.55
2023-01-07T09:00:19.409Z,34.92
2023-01-07T09:02:46.725Z,29.75
2023-01-07T09:05:14.046Z,40.20
2023-01-07T09:07:41.791Z,30.67
2023-01-07T09:10:09.964Z,35.55
2023-01-07T09:12:37.827Z,37.75
2023-01-07T09:15:05.930Z,27.73
2023-01-07T09:17:33.368Z,30.52
2023-01-07T09:20:03.188Z,30.48
2023-01-07T09:22:32.698Z,25.98
2023-01-07T09:27:27.562Z,27.90
2023-01-07T09:29:57.867Z,24.83
2023-01-07T09:32:29.178Z,21.35
2023-01-07T09:34:56.320Z,26.05
2023-01-07T09:37:23.535Z,30.05
2023-01-07T09:39:51.054Z,30.25
2023-01-07T09:42:51.373Z,25.35
2023-01-07T09:45:21.438Z,36.28
2023-01-07T09:47:55.309Z,40.95
2023-01-07T09:50:50.385Z,43.45
2023-01-07T09:53:37.024Z,34.13
2023-01-07T09:56:21.040Z,32.10
2023-01-07T09:58:48.581Z,32.13
2023-01-07T10:01:57.670Z,33.97
2023-01-07T10:04:38.757Z,29.98
2023-01-07T10:07:40.541Z,20.65
2023-01-07T10:10:35.974Z,33.15
2023-01-07T10:13:39.042Z,22.77
2023-01-07T10:16:31.037Z,18.73
2023-01-07T10:19:39.335Z,15.63
2023-01-07T10:22:36.706Z,9.52
2023-01-07T10:25:19.069Z,11.90
2023-01-07T10:27:49.319Z,10.40
2023-01-07T10:30:26.253Z,10.30
2023-01-07T10:33:30.944Z,9.50
2023-01-07T10:36:14.229Z,8.38
2023-01-07T10:38:47.028Z,7.18
2023-01-07T10:41:25.775Z,11.30
2023-01-07T10:44:10.412Z,12.18
2023-01-07T10:47:19.881Z,10.05
2023-01-07T10:50:29.959Z,6.30
2023-01-07T10:53:24.604Z,7.72
2023-01-07T10:56:19.736Z,5.55
2023-01-07T10:58:48.945Z,12.05
2023-01-07T11:01:27.814Z,8.30
2023-01-07T11:03:56.994Z,7.00
2023-01-07T11:06:51.796Z,3.92
2023-01-07T11:09:39.385Z,2.92
2023-01-07T11:12:40.441Z,4.47
2023-01-07T11:15:23.790Z,5.85
2023-01-07T11:18:12.362Z,12.32
2023-01-07T11:20:56.584Z,7.35
2023-01-07T11:23:35.874Z,8.50
2023-01-07T11:26:22.915Z,4.97
2023-01-07T11:28:58.160Z,5.90
2023-01-07T11:31:53.947Z,4.07
2023-01-07T11:34:34.172Z,4.07
2023-01-07T11:37:03.381Z,3.00
2023-01-07T11:39:34.660Z,5.03
2023-01-07T11:42:38.912Z,7.10
2023-01-07T11:45:19.798Z,4.72
2023-01-07T11:47:54.778Z,29.83
2023-01-07T11:50:35.899Z,5.82
2023-01-07T11:53:15.300Z,4.53
2023-01-07T11:58:27.999Z,7.00
2023-01-07T12:01:09.659Z,9.63
2023-01-07T12:04:04.420Z,4.65
2023-01-07T12:06:35.838Z,1.88
2023-01-07T12:09:15.138Z,4.90
2023-01-07T12:11:43.885Z,7.15
2023-01-07T12:14:31.569Z,3.92
2023-01-07T12:17:30.663Z,5.95
2023-01-07T12:20:37.127Z,2.60
2023-01-07T12:23:44.704Z,3.95
2023-01-07T12:26:42.286Z,3.63
2023-01-07T12:29:38.202Z,8.52
2023-01-07T12:32:41.459Z,5.28
2023-01-07T12:35:25.261Z,4.15
2023-01-07T12:38:33.417Z,6.93
2023-01-07T12:41:11.285Z,2.95
2023-01-07T12:44:01.966Z,5.85
2023-01-07T12:46:40.090Z,4.90
2023-01-07T12:49:21.507Z,4.68
2023-01-07T12:52:15.635Z,6.18
2023-01-07T12:55:12.944Z,2.90
2023-01-07T12:57:41.700Z,3.85
2023-01-07T13:00:20.016Z,5.88
2023-01-07T13:02:50.810Z,3.38
2023-01-07T13:05:31.712Z,7.07
2023-01-07T13:08:17.512Z,4.38
2023-01-07T13:11:42.877Z,5.25
2023-01-07T13:14:34.123Z,5.32
2023-01-07T13:17:26.340Z,3.50
2023-01-07T13:19:54.629Z,5.38
2023-01-07T13:22:37.286Z,5.63
2023-01-07T13:25:35.492Z,5.55
2023-01-07T13:28:40.050Z,4.40
2023-01-07T13:31:33.586Z,10.27
2023-01-07T13:34:41.385Z,4.60
2023-01-07T13:37:41.119Z,4.82
2023-01-07T13:40:52.881Z,5.65
2023-01-07T13:43:38.938Z,8.10
2023-01-07T13:46:18.590Z,6.15
2023-01-07T13:48:53.854Z,6.50
2023-01-07T13:51:33.994Z,7.70
2023-01-07T13:54:01.668Z,10.98
2023-01-07T13:56:35.466Z,8.50
2023-01-07T13:59:03.992Z,7.57
2023-01-07T14:01:32.927Z,7.43
2023-01-07T14:04:03.056Z,4.60
2023-01-07T14:06:41.193Z,5.45
2023-01-07T14:09:10.456Z,6.40
2023-01-07T14:12:00.566Z,13.55
2023-01-07T14:14:52.188Z,4.25
2023-01-07T14:17:39.822Z,5.35
2023-01-07T14:20:28.228Z,3.08
2023-01-07T14:23:19.428Z,10.10
2023-01-07T14:26:11.577Z,9.52
2023-01-07T14:29:26.757Z,3.25
2023-01-07T14:32:49.650Z,3.08
2023-01-07T14:35:26.224Z,2.15
2023-01-07T14:37:53.527Z,15.60
2023-01-07T14:40:26.374Z,5.13
2023-01-07T14:42:58.400Z,3.97
2023-01-07T14:45:40.891Z,15.13
2023-01-07T14:48:08.084Z,24.20
2023-01-07T14:51:19.072Z,11.45
2023-01-07T14:54:04.227Z,9.48
2023-01-07T14:56:59.058Z,10.48
2023-01-07T15:00:06.436Z,11.80
2023-01-07T15:03:13.034Z,12.75
2023-01-07T15:06:02.279Z,12.95
2023-01-07T15:09:02.576Z,9.82
2023-01-07T15:11:50.198Z,4.22
2023-01-07T15:15:08.018Z,6.93
2023-01-07T15:17:39.431Z,8.00
2023-01-07T15:20:09.685Z,5.32
2023-01-07T15:22:50.722Z,8.20
2023-01-07T15:25:49.578Z,16.27
2023-01-07T15:28:38.460Z,70.18
2023-01-07T15:31:22.663Z,33.65
2023-01-07T15:34:15.457Z,14.40
2023-01-07T15:36:49.525Z,21.70
2023-01-07T15:39:26.207Z,16.35
2023-01-07T15:41:55.514Z,20.85
2023-01-07T15:44:40.689Z,17.63
2023-01-07T15:47:32.343Z,47.90
2023-01-07T15:50:33.646Z,44.38
2023-01-07T15:53:21.771Z,27.88
2023-01-07T15:55:51.712Z,39.88
2023-01-07T15:58:39.405Z,54.35
2023-01-07T16:01:13.483Z,28.02
2023-01-07T16:03:44.029Z,39.65
2023-01-07T16:06:38.614Z,33.45
2023-01-07T16:09:19.045Z,32.13
2023-01-07T16:11:46.494Z,30.02
2023-01-07T16:14:23.999Z,36.42
2023-01-07T16:17:15.558Z,22.08
2023-01-07T16:19:42.909Z,42.78
2023-01-07T16:22:16.102Z,42.30
2023-01-07T16:24:52.576Z,25.70
2023-01-07T16:27:29.557Z,23.45
2023-01-07T16:29:58.905Z,26.05
2023-01-07T16:32:26.769Z,20.95
2023-01-07T16:35:05.126Z,20.42
2023-01-07T16:37:35.473Z,15.88
2023-01-07T16:40:07.441Z,11.93
2023-01-07T16:42:34.677Z,9.57
2023-01-07T16:45:04.398Z,16.77
2023-01-07T16:47:33.618Z,17.05
2023-01-07T16:50:19.416Z,21.05
2023-01-07T16:52:55.625Z,41.97
2023-01-07T16:56:14.211Z,35.42
2023-01-07T16:58:49.133Z,38.77
2023-01-07T17:01:30.328Z,48.03
2023-01-07T17:04:01.588Z,56.28
2023-01-07T17:06:37.353Z,53.05
2023-01-07T17:09:16.812Z,32.58
2023-01-07T17:14:32.719Z,26.77
2023-01-07T17:17:14.294Z,13.68
2023-01-07T17:19:52.474Z,12.13
2023-01-07T17:22:31.807Z,21.85
2023-01-07T17:25:21.726Z,17.67
2023-01-07T17:28:00.118Z,34.38
2023-01-07T17:30:34.785Z,22.52
2023-01-07T17:33:02.508Z,18.35
2023-01-07T17:35:29.762Z,28.75
2023-01-07T17:37:57.249Z,39.05
2023-01-07T17:40:24.581Z,50.55
2023-01-07T17:43:10.555Z,50.47
2023-01-07T17:45:37.813Z,67.30
2023-01-07T17:48:14.728Z,84.60
2023-01-07T17:50:43.295Z,79.75
2023-01-07T17:53:22.841Z,71.10
2023-01-07T17:55:50.122Z,60.05
2023-01-07T17:58:33.164Z,61.15
2023-01-07T18:01:05.602Z,62.63
2023-01-07T18:03:33.481Z,64.70
2023-01-07T18:06:00.822Z,75.18
2023-01-07T18:08:28.232Z,87.53
2023-01-07T18:11:14.643Z,73.18
2023-01-07T18:13:41.958Z,72.10
2023-01-07T18:16:13.049Z,80.38
2023-01-07T18:18:40.357Z,83.13
2023-01-07T18:21:10.838Z,63.88
2023-01-07T18:23:38.058Z,79.72
2023-01-07T18:26:06.427Z,85.65
2023-01-07T18:28:33.658Z,81.93
2023-01-07T18:31:00.953Z,67.10
2023-01-07T18:33:28.204Z,68.65
2023-01-07T18:35:55.420Z,51.30
2023-01-07T18:38:23.012Z,57.78
2023-01-07T18:40:50.249Z,63.97
2023-01-07T18:43:18.332Z,54.88
2023-01-07T18:45:47.761Z,57.35
2023-01-07T18:50:47.959Z,52.92
2023-01-07T18:53:17.404Z,58.17
2023-01-07T18:55:45.954Z,51.75
2023-01-07T18:58:15.721Z,49.15
2023-01-07T19:00:43.093Z,60.83
2023-01-07T19:03:10.826Z,49.88
2023-01-07T19:05:40.550Z,42.72
2023-01-07T19:08:07.798Z,35.75
2023-01-07T19:10:35.825Z,29.38
2023-01-07T19:13:03.189Z,45.63
2023-01-07T19:15:30.501Z,32.80
2023-01-07T19:17:57.591Z,40.33
2023-01-07T19:20:24.692Z,40.85
2023-01-07T19:22:51.903Z,39.88
2023-01-07T19:25:19.106Z,36.80
2023-01-07T19:27:46.292Z,38.13
2023-01-07T19:30:13.781Z,42.00
2023-01-07T19:32:41.012Z,36.17
2023-01-07T19:35:08.647Z,44.88
2023-01-07T19:37:39.383Z,40.80
2023-01-07T19:40:07.721Z,64.40
2023-01-07T19:42:35.051Z,54.90
2023-01-07T19:45:02.718Z,62.50
2023-01-07T19:47:30.268Z,58.63
2023-01-07T19:49:57.561Z,87.10
2023-01-07T19:52:24.981Z,88.10
2023-01-07T19:54:52.332Z,80.38
2023-01-07T19:57:19.554Z,84.38
2023-01-07T19:59:46.909Z,78.65
2023-01-07T20:02:14.670Z,68.28
2023-01-07T20:04:42.472Z,64.95
2023-01-07T20:07:10.308Z,62.63
2023-01-07T20:09:37.713Z,57.13
2023-01-07T20:12:05.312Z,71.35
2023-01-07T20:14:32.529Z,63.30
2023-01-07T20:16:59.821Z,50.40
2023-01-07T20:19:27.256Z,50.00
2023-01-07T20:21:54.528Z,63.22
2023-01-07T20:24:21.714Z,44.45
2023-01-07T20:26:49.052Z,43.15
2023-01-07T20:29:16.311Z,37.35
2023-01-07T20:31:44.256Z,30.90
2023-01-07T20:34:12.052Z,43.47
2023-01-07T20:36:39.379Z,33.67
2023-01-07T20:39:06.576Z,40.95
2023-01-07T20:41:34.886Z,43.45
2023-01-07T20:44:04.200Z,47.60
2023-01-07T20:46:35.371Z,42.65
2023-01-07T20:49:02.644Z,52.42
2023-01-07T20:51:31.150Z,48.08
2023-01-07T20:53:58.359Z,65.93
2023-01-07T20:56:31.514Z,54.92
2023-01-07T20:59:00.492Z,70.63
2023-01-07T21:01:28.973Z,74.85
2023-01-07T21:03:56.357Z,67.45
2023-01-07T21:06:23.994Z,92.85
2023-01-07T21:08:51.211Z,78.95
2023-01-07T21:11:21.465Z,79.97
2023-01-07T21:13:49.979Z,67.45
2023-01-07T21:16:17.998Z,69.47
2023-01-07T21:18:46.427Z,69.35
2023-01-07T21:21:18.438Z,66.82
2023-01-07T21:23:48.880Z,56.22
2023-01-07T21:26:17.465Z,56.42
2023-01-07T21:28:44.950Z,48.28
2023-01-07T21:31:16.940Z,55.40
2023-01-07T21:33:44.458Z,50.47
2023-01-07T21:36:16.108Z,60.08
2023-01-07T21:38:44.816Z,48.92
2023-01-07T21:41:16.580Z,45.63
2023-01-07T21:43:44.668Z,31.25
2023-01-07T21:46:12.872Z,33.00
2023-01-07T21:48:45.093Z,23.23
2023-01-07T21:51:26.605Z,32.80
2023-01-07T21:53:56.315Z,35.92
2023-01-07T21:56:30.698Z,34.50
2023-01-07T21:58:59.491Z,42.45
2023-01-07T22:01:29.864Z,40.75
2023-01-07T22:03:58.478Z,45.83
2023-01-07T22:06:35.436Z,44.65
2023-01-07T22:09:07.056Z,47.58
2023-01-07T22:11:38.092Z,40.78
2023-01-07T22:14:05.345Z,46.83
2023-01-07T22:16:32.766Z,38.22
2023-01-07T22:19:00.622Z,28.33
2023-01-07T22:21:28.178Z,26.92
2023-01-07T22:23:55.438Z,21.15
2023-01-07T22:26:23.391Z,25.63
2023-01-07T22:28:58.012Z,24.65
2023-01-07T22:31:29.685Z,19.80
2023-01-07T22:33:58.629Z,25.10
2023-01-07T22:36:57.362Z,19.48
2023-01-07T22:39:56.968Z,19.42
2023-01-07T22:45:02.137Z,34.08
2023-01-07T22:47:36.693Z,30.75
2023-01-07T22:50:06.792Z,30.30
2023-01-07T22:52:35.300Z,21.08
2023-01-07T22:55:02.760Z,22.13
2023-01-07T22:57:30.273Z,25.55
2023-01-07T22:59:58.523Z,19.52
2023-01-07T23:02:26.513Z,24.38
2023-01-07T23:04:53.760Z,35.30
2023-01-07T23:07:20.934Z,40.30
2023-01-07T23:09:50.134Z,40.85
2023-01-07T23:12:17.955Z,38.13
2023-01-07T23:14:45.328Z,39.17
2023-01-07T23:17:12.537Z,34.03
2023-01-07T23:19:39.748Z,39.72
2023-01-07T23:22:07.160Z,32.67
2023-01-07T23:24:35.999Z,26.38
2023-01-07T23:27:03.269Z,31.40
2023-01-07T23:29:30.586Z,32.38
2023-01-07T23:31:58.035Z,31.95
2023-01-07T23:34:25.222Z,27.85
2023-01-07T23:36:52.381Z,19.75
2023-01-07T23:39:19.535Z,30.85
2023-01-07T23:41:47.060Z,44.42
2023-01-07T23:44:14.525Z,37.28
2023-01-07T23:46:41.663Z,37.85
2023-01-07T23:49:08.879Z,36.95
2023-01-07T23:51:36.046Z,34.30
2023-01-07T23:54:03.367Z,34.50
2023-01-07T23:56:30.652Z,38.15
2023-01-07T23:58:58.107Z,43.47
